Time;durP1;ratioP1;P1;durP2;ratioP2;P2;SDS_P1;SDS_P2;PMS_P1;PMS_P2;Temp;Humidity;BMP_temperature;BMP_pressure;BME280_temperature;BME280_humidity;BME280_pressure;Samples;Min_cycle;Max_cycle;Signal;HPM_P1;HPM_P2
2022/07/14 00:01:43;;;;;;;5.60;2.72;;;;;;;;;;5090136;28;20567;-67
2022/07/14 00:04:10;;;;;;;6.00;2.72;;;;;;;;;;5095867;28;20044;-68
2022/07/14 00:06:36;;;;;;;7.88;2.55;;;;;;;;;;5094297;28;20542;-67
2022/07/14 00:09:03;;;;;;;5.18;2.75;;;;;;;;;;5096817;28;20465;-67
2022/07/14 00:11:29;;;;;;;5.65;2.67;;;;;;;;;;5092432;28;20105;-67
2022/07/14 00:13:58;;;;;;;9.93;3.00;;;;;;;;;;5092023;28;20067;-67
2022/07/14 00:16:24;;;;;;;5.80;3.13;;;;;;;;;;5091333;28;20084;-67
2022/07/14 00:18:50;;;;;;;6.97;2.63;;;;;;;;;;5089155;28;20086;-67
2022/07/14 00:21:17;;;;;;;7.13;3.33;;;;;;;;;;5086986;28;20044;-64
2022/07/14 00:23:45;;;;;;;4.72;2.28;;;;;;;;;;5089597;28;20032;-64
2022/07/14 00:26:12;;;;;;;6.47;3.17;;;;;;;;;;5089300;28;20420;-64
2022/07/14 00:28:38;;;;;;;5.22;2.42;;;;;;;;;;5092885;28;20396;-65
2022/07/14 00:31:08;;;;;;;7.32;2.67;;;;;;;;;;5089511;28;20043;-64
2022/07/14 00:33:35;;;;;;;8.73;3.08;;;;;;;;;;5078446;28;20036;-64
2022/07/14 00:36:01;;;;;;;10.70;2.80;;;;;;;;;;5087796;28;20040;-65
2022/07/14 00:38:28;;;;;;;5.10;2.90;;;;;;;;;;5104201;28;20473;-65
2022/07/14 00:40:54;;;;;;;7.35;3.33;;;;;;;;;;5092530;28;20413;-64
2022/07/14 00:43:20;;;;;;;11.18;2.58;;;;;;;;;;5088843;28;20296;-64
2022/07/14 00:45:46;;;;;;;5.00;2.53;;;;;;;;;;5098075;28;20035;-64
2022/07/14 00:48:12;;;;;;;6.95;2.60;;;;;;;;;;5093527;28;20036;-64
2022/07/14 00:50:41;;;;;;;7.35;2.75;;;;;;;;;;5089840;28;20040;-64
2022/07/14 00:53:09;;;;;;;7.53;3.17;;;;;;;;;;5089701;28;20083;-64
2022/07/14 00:55:40;;;;;;;5.60;2.72;;;;;;;;;;5089728;28;20039;-65
2022/07/14 00:58:06;;;;;;;4.97;2.67;;;;;;;;;;5093289;28;20047;-64
2022/07/14 01:00:32;;;;;;;7.85;2.80;;;;;;;;;;5093908;28;20063;-65
2022/07/14 01:02:58;;;;;;;7.30;2.58;;;;;;;;;;5094733;28;20046;-65
2022/07/14 01:05:24;;;;;;;8.95;3.05;;;;;;;;;;5095445;28;20277;-64
2022/07/14 01:07:51;;;;;;;7.95;2.92;;;;;;;;;;5088638;28;20032;-64
2022/07/14 01:10:17;;;;;;;5.88;2.55;;;;;;;;;;5094954;28;20759;-65
2022/07/14 01:12:49;;;;;;;6.07;2.53;;;;;;;;;;5094654;28;20040;-64
2022/07/14 01:15:17;;;;;;;6.78;3.20;;;;;;;;;;5092420;28;20039;-64
2022/07/14 01:17:44;;;;;;;8.05;2.95;;;;;;;;;;5096190;28;20591;-64
2022/07/14 01:20:10;;;;;;;7.20;3.55;;;;;;;;;;5092780;28;20056;-64
2022/07/14 01:22:36;;;;;;;10.13;3.20;;;;;;;;;;5092614;28;20094;-64
2022/07/14 01:25:06;;;;;;;5.68;3.33;;;;;;;;;;5096206;28;20038;-65
2022/07/14 01:27:33;;;;;;;4.97;2.88;;;;;;;;;;5098474;28;20047;-65
2022/07/14 01:29:59;;;;;;;10.13;3.78;;;;;;;;;;5078594;28;20485;-64
2022/07/14 01:32:25;;;;;;;5.00;3.13;;;;;;;;;;5092427;28;20051;-64
2022/07/14 01:34:52;;;;;;;5.28;2.42;;;;;;;;;;5093357;28;20431;-64
2022/07/14 01:37:19;;;;;;;6.55;2.75;;;;;;;;;;5101969;28;20047;-65
2022/07/14 01:39:45;;;;;;;6.55;3.17;;;;;;;;;;5090744;28;20382;-64
2022/07/14 01:42:11;;;;;;;4.93;2.75;;;;;;;;;;5095415;28;20048;-64
2022/07/14 01:44:38;;;;;;;10.52;3.08;;;;;;;;;;5092931;28;20046;-65
2022/07/14 01:47:04;;;;;;;13.80;4.15;;;;;;;;;;5094354;28;20704;-65
2022/07/14 01:49:30;;;;;;;8.63;3.20;;;;;;;;;;5094217;28;20666;-64
2022/07/14 01:51:56;;;;;;;7.22;2.90;;;;;;;;;;5094376;28;20039;-65
2022/07/14 01:54:24;;;;;;;9.27;3.72;;;;;;;;;;5096184;28;20401;-67
2022/07/14 01:56:50;;;;;;;6.60;3.47;;;;;;;;;;5091379;28;20519;-67
2022/07/14 01:59:16;;;;;;;6.93;3.35;;;;;;;;;;5089443;28;20043;-65
2022/07/14 02:01:44;;;;;;;8.32;3.40;;;;;;;;;;5091667;28;20040;-65
2022/07/14 02:04:17;;;;;;;9.70;3.95;;;;;;;;;;5099303;28;20036;-65
2022/07/14 02:06:51;;;;;;;8.52;3.67;;;;;;;;;;5102125;28;20036;-65
2022/07/14 02:09:17;;;;;;;8.30;3.55;;;;;;;;;;5090313;28;20086;-65
2022/07/14 02:14:29;;;;;;;9.07;3.63;;;;;;;;;;5096746;28;20100;-65
2022/07/14 02:16:55;;;;;;;8.00;3.55;;;;;;;;;;5099141;28;20036;-65
2022/07/14 02:19:23;;;;;;;10.93;3.97;;;;;;;;;;5072668;28;20055;-65
2022/07/14 02:21:51;;;;;;;7.78;3.63;;;;;;;;;;5097586;28;20497;-65
2022/07/14 02:24:18;;;;;;;8.65;3.90;;;;;;;;;;5091232;28;20085;-65
2022/07/14 02:26:44;;;;;;;6.47;3.50;;;;;;;;;;5090268;28;20073;-65
2022/07/14 02:29:11;;;;;;;6.15;4.00;;;;;;;;;;5096973;28;20044;-65
2022/07/14 02:31:37;;;;;;;8.63;4.20;;;;;;;;;;5114846;27;20044;-65
2022/07/14 02:34:03;;;;;;;5.22;3.58;;;;;;;;;;5096521;28;20192;-65
2022/07/14 02:36:30;;;;;;;8.90;3.42;;;;;;;;;;5090539;28;20039;-65
2022/07/14 02:38:57;;;;;;;5.03;2.90;;;;;;;;;;5090369;28;20117;-65
2022/07/14 02:41:23;;;;;;;7.85;2.83;;;;;;;;;;5097137;28;20394;-65
2022/07/14 02:43:49;;;;;;;6.35;3.25;;;;;;;;;;5095454;27;20079;-65
2022/07/14 02:46:16;;;;;;;8.32;4.32;;;;;;;;;;5093702;28;20631;-65
2022/07/14 02:48:42;;;;;;;8.48;3.08;;;;;;;;;;5093748;28;20284;-66
2022/07/14 02:51:09;;;;;;;9.82;3.53;;;;;;;;;;5089113;28;20052;-65
2022/07/14 02:53:36;;;;;;;6.32;3.85;;;;;;;;;;5088946;28;20040;-65
2022/07/14 02:56:06;;;;;;;8.88;3.65;;;;;;;;;;5096420;28;20039;-65
2022/07/14 02:58:32;;;;;;;6.75;3.25;;;;;;;;;;5090895;28;20040;-65
2022/07/14 03:01:00;;;;;;;8.75;3.67;;;;;;;;;;5091679;28;20051;-65
2022/07/14 03:03:26;;;;;;;6.90;3.40;;;;;;;;;;5093206;28;20492;-65
2022/07/14 03:05:52;;;;;;;7.18;3.60;;;;;;;;;;5096385;28;20042;-65
2022/07/14 03:08:18;;;;;;;4.65;3.53;;;;;;;;;;5097121;28;20246;-65
2022/07/14 03:10:44;;;;;;;5.20;3.17;;;;;;;;;;5107523;27;20046;-66
2022/07/14 03:13:10;;;;;;;5.80;3.42;;;;;;;;;;5095801;28;20100;-65
2022/07/14 03:15:38;;;;;;;5.35;3.38;;;;;;;;;;5088692;28;20041;-65
2022/07/14 03:18:05;;;;;;;7.63;2.90;;;;;;;;;;5097317;28;20068;-65
2022/07/14 03:20:31;;;;;;;4.63;3.45;;;;;;;;;;5095022;28;20382;-65
2022/07/14 03:22:57;;;;;;;9.75;3.50;;;;;;;;;;5099874;28;20401;-66
2022/07/14 03:25:23;;;;;;;4.82;2.97;;;;;;;;;;5091324;28;20036;-65
2022/07/14 03:27:50;;;;;;;6.38;3.33;;;;;;;;;;5091742;28;20040;-66
2022/07/14 03:30:16;;;;;;;3.75;2.88;;;;;;;;;;5088627;28;20204;-67
2022/07/14 03:32:43;;;;;;;5.47;3.80;;;;;;;;;;5099264;28;20108;-65
2022/07/14 03:35:09;;;;;;;7.05;3.47;;;;;;;;;;5097122;28;20040;-65
2022/07/14 03:37:35;;;;;;;5.25;2.95;;;;;;;;;;5095611;28;20566;-65
2022/07/14 03:40:02;;;;;;;8.70;4.25;;;;;;;;;;5091401;28;20048;-65
2022/07/14 03:42:28;;;;;;;5.28;2.67;;;;;;;;;;5091072;28;20059;-65
2022/07/14 03:44:55;;;;;;;6.47;3.25;;;;;;;;;;5094151;28;20036;-65
2022/07/14 03:47:21;;;;;;;9.27;3.60;;;;;;;;;;5093343;28;20032;-65
2022/07/14 03:49:47;;;;;;;4.65;3.00;;;;;;;;;;5094383;28;20028;-65
2022/07/14 03:52:15;;;;;;;6.85;3.95;;;;;;;;;;5091406;28;20115;-65
2022/07/14 03:54:44;;;;;;;5.78;3.10;;;;;;;;;;5094709;28;20071;-66
2022/07/14 03:57:11;;;;;;;4.50;3.05;;;;;;;;;;5090777;28;20042;-65
2022/07/14 03:59:40;;;;;;;4.90;3.20;;;;;;;;;;5087873;28;20401;-65
2022/07/14 04:02:12;;;;;;;4.45;3.05;;;;;;;;;;5090594;28;20032;-65
2022/07/14 04:04:39;;;;;;;7.07;3.67;;;;;;;;;;5095242;28;20036;-65
2022/07/14 04:07:07;;;;;;;4.45;3.33;;;;;;;;;;5094151;28;20385;-65
2022/07/14 04:09:33;;;;;;;5.65;3.22;;;;;;;;;;5091617;28;20569;-65
2022/07/14 04:11:59;;;;;;;5.82;3.38;;;;;;;;;;5086642;28;20427;-65
2022/07/14 04:14:26;;;;;;;5.88;2.72;;;;;;;;;;5085297;28;20532;-65
2022/07/14 04:16:54;;;;;;;7.68;4.72;;;;;;;;;;5080299;28;20521;-65
2022/07/14 04:19:22;;;;;;;7.38;3.80;;;;;;;;;;5090736;28;20051;-65
2022/07/14 04:21:48;;;;;;;9.25;4.28;;;;;;;;;;5090381;28;20032;-65
2022/07/14 04:24:15;;;;;;;9.35;3.90;;;;;;;;;;5092121;28;20036;-65
2022/07/14 04:26:42;;;;;;;7.32;3.67;;;;;;;;;;5085134;28;20082;-65
2022/07/14 04:29:08;;;;;;;4.78;3.17;;;;;;;;;;5085232;28;20036;-65
2022/07/14 04:31:35;;;;;;;5.97;3.22;;;;;;;;;;5087626;28;20130;-66
2022/07/14 04:34:01;;;;;;;7.10;3.05;;;;;;;;;;5085996;28;20051;-65
2022/07/14 04:36:27;;;;;;;4.40;3.15;;;;;;;;;;5083089;28;20048;-65
2022/07/14 04:38:53;;;;;;;7.78;3.03;;;;;;;;;;5084668;28;20032;-66
2022/07/14 04:41:20;;;;;;;5.78;3.00;;;23.60;93.60;;;;;;5088287;28;20044;-65
2022/07/14 04:43:46;;;;;;;7.78;3.33;;;;;;;;;;5088045;28;20260;-65
2022/07/14 04:46:14;;;;;;;9.88;3.55;;;;;;;;;;5092202;28;20071;-65
2022/07/14 04:54:10;;;;;;;8.38;3.00;;;;;;;;;;5093649;28;20074;-65
2022/07/14 04:56:36;;;;;;;7.25;3.17;;;;;;;;;;5104452;27;20044;-65
2022/07/14 04:59:02;;;;;;;4.75;3.08;;;;;;;;;;5097008;28;20032;-65
2022/07/14 05:01:29;;;;;;;5.80;3.92;;;;;;;;;;5088243;28;20044;-65
2022/07/14 05:03:55;;;;;;;7.85;3.58;;;;;;;;;;5089343;28;20220;-65
2022/07/14 05:06:21;;;;;;;5.95;3.35;;;;;;;;;;5101427;27;20051;-65
2022/07/14 05:08:47;;;;;;;7.85;3.58;;;;;;;;;;5086849;28;20059;-66
2022/07/14 05:11:13;;;;;;;8.18;2.67;;;;;;;;;;5087438;28;20055;-65
2022/07/14 05:13:39;;;;;;;4.82;2.60;;;;;;;;;;5086923;28;20233;-65
2022/07/14 05:16:07;;;;;;;7.95;3.30;;;;;;;;;;5088460;28;20524;-66
2022/07/14 05:18:33;;;;;;;5.30;3.28;;;;;;;;;;5106097;27;20047;-66
2022/07/14 05:20:59;;;;;;;7.85;3.03;;;;;;;;;;5087646;28;20114;-65
2022/07/14 05:23:25;;;;;;;4.55;2.30;;;;;;;;;;5092364;28;20133;-65
2022/07/14 05:25:54;;;;;;;5.90;2.67;;;;;;;;;;5084146;28;20078;-65
2022/07/14 05:28:20;;;;;;;5.78;2.67;;;;;;;;;;5086135;28;20489;-65
2022/07/14 05:30:46;;;;;;;6.38;2.92;;;;;;;;;;5090514;28;20040;-65
2022/07/14 05:33:12;;;;;;;8.00;3.63;;;;;;;;;;5106051;27;20097;-65
2022/07/14 05:35:40;;;;;;;6.47;2.83;;;;;;;;;;5083330;28;20398;-65
2022/07/14 05:38:06;;;;;;;7.05;2.80;;;;;;;;;;5090256;28;20051;-67
2022/07/14 05:40:33;;;;;;;5.90;2.47;;;;;;;;;;5094811;28;20048;-65
2022/07/14 05:43:01;;;;;;;6.55;3.00;;;;;;;;;;5094739;28;20170;-65
2022/07/14 05:45:29;;;;;;;5.78;2.45;;;;;;;;;;5089815;28;20655;-66
2022/07/14 05:47:55;;;;;;;7.93;2.80;;;;;;;;;;5088687;28;20862;-65
2022/07/14 05:50:21;;;;;;;8.45;2.90;;;;;;;;;;5090545;28;20126;-65
2022/07/14 05:52:47;;;;;;;5.47;2.85;;;;;;;;;;5073900;28;20046;-65
2022/07/14 05:55:15;;;;;;;6.03;2.38;;;;;;;;;;5095613;28;20165;-65
2022/07/14 05:57:42;;;;;;;6.32;2.22;;;;;;;;;;5091923;28;20067;-65
2022/07/14 06:00:08;;;;;;;8.07;2.78;;;;;;;;;;5093237;28;20374;-65
2022/07/14 06:02:34;;;;;;;6.28;2.83;;;;;;;;;;5100865;28;20031;-65
2022/07/14 06:05:01;;;;;;;9.57;2.72;;;;;;;;;;5097097;28;20055;-65
2022/07/14 06:07:27;;;;;;;6.28;2.53;;;;;;;;;;5091614;28;20028;-65
2022/07/14 06:09:53;;;;;;;10.98;2.70;;;;;;;;;;5093877;28;20077;-65
2022/07/14 06:12:19;;;;;;;8.93;2.63;;;;;;;;;;5090076;28;20040;-66
2022/07/14 06:14:45;;;;;;;4.65;2.47;;;;;;;;;;5095344;28;20039;-68
2022/07/14 06:17:11;;;;;;;6.38;2.55;;;;;;;;;;5069545;28;20047;-65
2022/07/14 06:19:38;;;;;;;8.32;2.70;;;;;;;;;;5090566;28;20117;-65
2022/07/14 06:22:05;;;;;;;4.85;2.63;;;;;;;;;;5081630;28;20044;-65
2022/07/14 06:24:31;;;;;;;6.97;2.72;;;;;;;;;;5094299;28;20043;-65
2022/07/14 06:26:58;;;;;;;10.77;2.35;;;;;;;;;;5089210;28;20093;-65
2022/07/14 06:29:24;;;;;;;5.47;2.33;;;;;;;;;;5088528;28;20044;-66
2022/07/14 06:31:55;;;;;;;3.63;2.00;;;;;;;;;;5085790;28;20036;-65
2022/07/14 06:34:21;;;;;;;5.85;1.83;;;;;;;;;;5099816;27;20044;-66
2022/07/14 06:36:47;;;;;;;4.13;2.05;;;;;;;;;;5089068;28;20064;-66
2022/07/14 06:39:14;;;;;;;3.78;1.60;;;;;;;;;;5084976;28;20155;-65
2022/07/14 06:41:41;;;;;;;3.85;1.58;;;;;;;;;;5093721;28;20055;-66
2022/07/14 06:44:07;;;;;;;3.97;1.60;;;;;;;;;;5088062;28;20131;-66
2022/07/14 06:46:34;;;;;;;3.00;0.90;;;;;;;;;;5092853;28;20401;-66
2022/07/14 06:49:00;;;;;;;3.08;1.48;;;;;;;;;;5089963;28;20555;-65
2022/07/14 06:51:26;;;;;;;1.27;0.70;;;;;;;;;;5095003;28;20460;-65
2022/07/14 06:53:53;;;;;;;2.42;1.10;;;;;;;;;;5072763;28;20501;-65
2022/07/14 06:56:19;;;;;;;4.25;1.60;;;;;;;;;;5090068;28;20051;-66
2022/07/14 06:58:46;;;;;;;2.50;1.20;;;;;;;;;;5090350;28;20077;-65
2022/07/14 07:01:12;;;;;;;3.47;1.10;;;;;;;;;;5099165;28;20048;-66
2022/07/14 07:03:38;;;;;;;2.63;1.00;;;;;;;;;;5091031;28;20166;-65
2022/07/14 07:08:49;;;;;;;2.50;1.15;;;;;;;;;;5089801;28;20046;-65
2022/07/14 07:11:15;;;;;;;2.50;0.77;;;;;;;;;;5094143;28;20047;-65
2022/07/14 07:13:41;;;;;;;2.45;1.10;;;;;;;;;;5094308;28;20043;-66
2022/07/14 07:16:08;;;;;;;1.95;0.90;;;;;;;;;;5091288;28;20213;-65
2022/07/14 07:18:35;;;;;;;3.65;1.25;;;;;;;;;;5088785;28;20601;-65
2022/07/14 07:21:01;;;;;;;2.88;1.27;;;;;;;;;;5086157;28;20038;-66
2022/07/14 07:23:29;;;;;;;4.47;0.90;;;;;;;;;;5094100;28;20423;-65
2022/07/14 07:25:57;;;;;;;2.83;0.90;;;;;;;;;;5082173;28;20128;-65
2022/07/14 07:28:23;;;;;;;3.97;1.20;;;;;;;;;;5093050;28;20039;-65
2022/07/14 07:30:49;;;;;;;3.20;1.25;;;;;;;;;;5091488;28;20042;-65
2022/07/14 07:33:15;;;;;;;3.13;1.02;;;;;;;;;;5096076;28;20043;-65
2022/07/14 07:35:45;;;;;;;2.30;0.73;;;;;;;;;;5093790;28;20050;-65
2022/07/14 07:38:11;;;;;;;5.25;1.00;;;;;;;;;;5095880;28;20066;-65
2022/07/14 07:40:37;;;;;;;1.23;1.00;;;;;;;;;;5091218;28;20278;-65
2022/07/14 07:43:05;;;;;;;1.92;0.93;;;;;;;;;;5096278;28;20044;-65
2022/07/14 07:45:31;;;;;;;2.85;1.00;;;;;;;;;;5095889;28;20615;-65
2022/07/14 07:48:00;;;;;;;5.00;1.50;;;;;;;;;;5096497;28;20541;-65
2022/07/14 07:50:26;;;;;;;4.85;0.93;;;;;;;;;;5091907;28;20055;-65
2022/07/14 07:52:52;;;;;;;8.57;1.35;;;;;;;;;;5094317;28;20056;-65
2022/07/14 07:55:18;;;;;;;2.70;0.77;;;;;;;;;;5104190;27;20051;-66
2022/07/14 07:57:44;;;;;;;2.05;0.98;;;;;;;;;;5090567;28;20128;-65
2022/07/14 08:00:11;;;;;;;4.53;1.20;;;;;;;;;;5091035;28;20044;-65
2022/07/14 08:02:44;;;;;;;3.20;1.08;;;;;;;;;;5098896;28;20515;-65
2022/07/14 08:05:10;;;;;;;4.85;1.30;;;;;;;;;;5085012;28;20040;-65
2022/07/14 08:07:37;;;;;;;4.65;1.30;;;;;;;;;;5094802;28;20047;-65
2022/07/14 08:10:04;;;;;;;2.67;1.00;;;;;;;;;;5092546;28;20421;-65
2022/07/14 08:12:30;;;;;;;5.45;1.30;;;;;;;;;;5090085;28;20062;-65
2022/07/14 08:14:56;;;;;;;2.47;1.05;;;;;;;;;;5089629;28;20040;-64
2022/07/14 08:17:22;;;;;;;2.35;1.55;;;;;;;;;;5096021;28;20055;-64
2022/07/14 08:19:49;;;;;;;2.72;0.90;;;;;;;;;;5090853;28;20037;-65
2022/07/14 08:22:26;;;;;;;2.97;1.52;;;;;;;;;;5090555;28;20032;-65
2022/07/14 08:24:53;;;;;;;2.08;1.13;;;;;;;;;;5085513;28;20032;-65
2022/07/14 08:27:19;;;;;;;2.40;0.73;;;;;;;;;;5100622;28;20028;-65
2022/07/14 08:29:45;;;;;;;7.15;2.10;;;;;;;;;;5095731;28;20046;-65
2022/07/14 08:32:11;;;;;;;2.13;0.88;;;;;;;;;;5097767;28;20035;-65
2022/07/14 08:34:37;;;;;;;2.17;1.58;;;;;;;;;;5094761;28;20044;-65
2022/07/14 08:37:05;;;;;;;2.67;1.20;;;;;;;;;;5093606;28;20036;-65
2022/07/14 08:39:31;;;;;;;7.75;1.13;;;;;;;;;;5093911;28;20445;-65
2022/07/14 08:42:01;;;;;;;3.15;1.20;;;;;;;;;;5098005;28;20103;-65
2022/07/14 08:44:28;;;;;;;5.43;1.02;;;;;;;;;;5092380;28;20040;-65
2022/07/14 08:46:55;;;;;;;2.72;0.85;;;;;;;;;;5095332;28;20055;-65
2022/07/14 08:49:21;;;;;;;2.38;0.77;;;;;;;;;;5095772;28;20111;-65
2022/07/14 08:51:49;;;;;;;3.95;0.88;;;;;;;;;;5093000;28;20040;-64
2022/07/14 08:54:15;;;;;;;3.90;0.90;;;;;;;;;;5099551;28;20036;-65
2022/07/14 08:56:42;;;;;;;2.40;0.57;;;;;;;;;;5094256;28;20043;-64
2022/07/14 08:59:08;;;;;;;3.00;1.00;;;;;;;;;;5096660;28;20127;-65
2022/07/14 09:01:35;;;;;;;3.17;1.00;;;;;;;;;;5095938;28;20098;-64
2022/07/14 09:04:01;;;;;;;3.60;1.00;;;;;;;;;;5093993;28;20036;-64
2022/07/14 09:06:43;;;;;;;3.15;1.10;;;;;;;;;;5092400;28;20036;-65
2022/07/14 09:09:09;;;;;;;3.50;1.25;;;;;;;;;;5096879;28;20077;-64
2022/07/14 09:11:35;;;;;;;1.90;1.00;;;;;;;;;;5099257;28;20047;-65
2022/07/14 09:14:08;;;;;;;2.00;1.05;;;;;;;;;;5097420;28;20036;-65
2022/07/14 09:16:35;;;;;;;2.22;1.42;;;;;;;;;;5093071;28;20094;-65
2022/07/14 09:19:05;;;;;;;4.13;1.00;;;;;;;;;;5095536;28;20487;-64
2022/07/14 09:21:32;;;;;;;1.63;0.85;;;;;;;;;;5095694;28;20060;-65
2022/07/14 09:23:58;;;;;;;2.90;1.30;;;;;;;;;;5095612;28;20042;-65
2022/07/14 09:26:25;;;;;;;3.95;1.13;;;;;;;;;;5094982;28;20224;-65
2022/07/14 09:28:52;;;;;;;2.20;1.05;;;;;;;;;;5091803;28;20035;-65
2022/07/14 09:31:24;;;;;;;3.70;0.93;;;;;;;;;;5104156;28;20474;-64
2022/07/14 09:33:51;;;;;;;1.13;0.60;;;;;;;;;;5099095;28;20159;-65
2022/07/14 09:36:22;;;;;;;2.90;1.10;;;;;;;;;;5112204;27;20439;-65
2022/07/14 09:38:49;;;;;;;1.95;1.10;;;;;;;;;;5100985;28;20075;-65
2022/07/14 09:41:15;;;;;;;6.18;1.27;;;;;;;;;;5092693;28;20044;-65
2022/07/14 09:44:01;;;;;;;4.30;1.25;;;;;;;;;;5091884;28;20438;-65
2022/07/14 09:46:46;;;;;;;2.55;1.23;;;;;;;;;;5098405;28;20446;-65
2022/07/14 09:49:12;;;;;;;4.85;1.10;;;;;;;;;;5097853;28;20049;-64
2022/07/14 09:51:55;;;;;;;4.90;1.00;;;;;;;;;;5096200;28;20036;-65
2022/07/14 09:54:43;;;;;;;4.05;1.05;;;;;;;;;;5097455;28;20044;-64
2022/07/14 09:57:12;;;;;;;2.60;0.90;;;;;;;;;;5086602;28;20051;-65
2022/07/14 09:59:49;;;;;;;3.65;1.05;;;;;;;;;;5091866;28;20060;-65
2022/07/14 10:02:17;;;;;;;3.42;0.93;;;;;;;;;;5101414;28;20093;-66
2022/07/14 10:04:45;;;;;;;2.90;1.13;;;;;;;;;;5097431;28;20036;-64
2022/07/14 10:07:12;;;;;;;0.85;0.68;;;;;;;;;;5086750;28;20040;-64
2022/07/14 10:09:39;;;;;;;6.35;1.20;;;;;;;;;;5094699;28;20567;-65
2022/07/14 10:12:06;;;;;;;2.15;1.45;;;;;;;;;;5090265;28;20054;-65
2022/07/14 10:14:33;;;;;;;3.45;1.02;;;;;;;;;;5113541;27;20079;-65
2022/07/14 10:16:59;;;;;;;2.13;1.10;;;;;;;;;;5095617;28;20036;-64
2022/07/14 10:19:26;;;;;;;1.77;0.90;;;;;;;;;;5091125;28;20052;-65
2022/07/14 10:21:55;;;;;;;4.07;0.90;;;;;;;;;;5095261;28;20040;-65
2022/07/14 10:24:23;;;;;;;2.10;1.00;;;;;;;;;;5086426;28;20032;-65
2022/07/14 10:26:50;;;;;;;3.40;1.42;;;;;;;;;;5078898;28;20048;-65
2022/07/14 10:29:16;;;;;;;3.55;1.38;;;;;;;;;;5097244;28;20036;-66
2022/07/14 10:31:51;;;;;;;1.63;0.93;;;;;;;;;;5100411;28;20169;-65
2022/07/14 10:34:56;;;;;;;5.72;1.13;;;;;;;;;;5090807;28;20109;-65
2022/07/14 10:37:41;;;;;;;4.75;1.58;;;;;;;;;;5049697;28;20378;-65
2022/07/14 10:40:17;;;;;;;2.53;1.20;;;;;;;;;;5046954;28;20190;-64
2022/07/14 10:42:57;;;;;;;1.75;0.90;;;;;;;;;;5081413;28;20220;-65
2022/07/14 10:45:25;;;;;;;3.40;0.88;;;;;;;;;;5099129;28;20485;-65
2022/07/14 10:47:53;;;;;;;3.33;1.30;;;;;;;;;;5092642;28;20388;-64
2022/07/14 10:50:21;;;;;;;3.58;0.77;;;;;;;;;;5098180;27;20043;-67
2022/07/14 10:52:53;;;;;;;7.03;1.38;;;;;;;;;;5104988;27;20243;-65
2022/07/14 10:55:21;;;;;;;4.05;1.20;;;;;;;;;;5099711;28;20071;-65
2022/07/14 10:58:06;;;;;;;2.75;1.00;;;;;;;;;;5095681;28;20058;-65
2022/07/14 11:00:44;;;;;;;2.60;1.15;;;;;;;;;;5091894;28;20059;-65
2022/07/14 11:03:24;;;;;;;2.05;1.42;;;;;;;;;;5089695;28;20520;-65
2022/07/14 11:06:03;;;;;;;2.50;1.23;;;;;;;;;;5089206;28;20373;-65
2022/07/14 11:08:32;;;;;;;2.50;1.10;;;;;;;;;;5091270;28;20035;-65
2022/07/14 11:10:59;;;;;;;4.72;1.10;;;;;;;;;;5080289;28;20044;-64
2022/07/14 11:13:26;;;;;;;1.40;0.90;;;;;;;;;;5097291;28;20149;-64
2022/07/14 11:15:55;;;;;;;1.95;0.77;;;;;;;;;;5093096;28;20040;-65
2022/07/14 11:18:21;;;;;;;3.65;1.20;;;;;;;;;;5090419;28;20410;-64
2022/07/14 11:21:06;;;;;;;4.63;1.10;;;;;;;;;;5093337;28;20028;-65
2022/07/14 11:23:54;;;;;;;3.63;1.05;;;;;;;;;;5089938;28;20079;-65
2022/07/14 11:26:32;;;;;;;9.43;1.25;;;;;;;;;;5095765;28;20367;-64
2022/07/14 11:28:59;;;;;;;2.22;0.93;;;;;;;;;;5100424;27;20040;-65
2022/07/14 11:31:26;;;;;;;2.60;0.90;;;;;;;;;;5096819;28;20035;-64
2022/07/14 11:36:37;;;;;;;2.45;0.90;;;;;;;;;;5112856;27;20043;-65
2022/07/14 11:39:16;;;;;;;2.33;0.90;;;;;;;;;;5092581;28;20044;-64
2022/07/14 11:41:43;;;;;;;2.17;0.95;;;;;;;;;;5091114;28;20135;-67
2022/07/14 11:44:29;;;;;;;3.30;1.23;;;;;;;;;;5088366;28;20493;-67
2022/07/14 11:47:01;;;;;;;2.83;1.00;;;;;;;;;;5100094;28;20118;-67
2022/07/14 11:49:27;;;;;;;2.08;1.02;;;;;;;;;;5089978;28;20055;-67
2022/07/14 11:51:54;;;;;;;3.20;0.90;;;;;;;;;;5095263;28;20482;-67
2022/07/14 11:54:21;;;;;;;4.55;1.08;;;;;;;;;;5089560;28;20153;-64
2022/07/14 11:56:48;;;;;;;2.70;0.82;;;;;;;;;;5092211;28;20556;-64
2022/07/14 11:59:19;;;;;;;2.28;0.88;;;;;;;;;;5084459;28;20084;-65
2022/07/14 12:01:45;;;;;;;3.75;0.90;;;;;;;;;;5095209;28;20488;-64
2022/07/14 12:04:14;;;;;;;2.65;0.90;;;;;;;;;;5098524;28;20310;-65
2022/07/14 12:06:43;;;;;;;2.47;1.00;;;;;;;;;;5095301;28;20122;-64
2022/07/14 12:09:09;;;;;;;3.45;0.80;;;;;;;;;;5090153;28;20479;-64
2022/07/14 12:11:36;;;;;;;4.05;0.90;;;;;;;;;;5089447;28;20100;-65
2022/07/14 12:14:03;;;;;;;2.22;1.20;;;;;;;;;;5090116;28;20052;-65
2022/07/14 12:16:41;;;;;;;2.80;1.13;;;;;;;;;;5088946;28;20370;-65
2022/07/14 12:19:07;;;;;;;2.55;0.95;;;;;;;;;;5081733;28;20102;-65
2022/07/14 12:21:35;;;;;;;1.65;1.00;;;;;;;;;;5066855;28;20497;-67
2022/07/14 12:24:01;;;;;;;1.27;0.88;;;;;;;;;;5082773;28;20073;-67
2022/07/14 12:26:28;;;;;;;2.25;0.80;;;;;;;;;;5084593;28;20397;-67
2022/07/14 12:28:55;;;;;;;1.75;1.17;;;;;;;;;;5083562;28;20087;-67
2022/07/14 12:31:23;;;;;;;5.82;1.83;;;;;;;;;;5085090;28;20046;-67
2022/07/14 12:33:50;;;;;;;1.92;0.77;;;;;;;;;;5083959;28;20044;-68
2022/07/14 12:36:23;;;;;;;3.28;0.93;;;;;;;;;;5083237;28;20056;-67
2022/07/14 12:38:50;;;;;;;4.05;0.82;;;;;;;;;;5083584;28;20044;-67
2022/07/14 12:41:19;;;;;;;1.90;0.95;;;;;;;;;;5082220;28;20064;-68
2022/07/14 12:43:46;;;;;;;1.67;0.70;;;;;;;;;;5085393;28;20060;-67
2022/07/14 12:46:14;;;;;;;4.97;0.82;;;;;;;;;;5086057;28;20068;-67
2022/07/14 12:48:50;;;;;;;1.80;0.80;;;;;;;;;;5086975;28;20028;-67
2022/07/14 12:51:36;;;;;;;1.23;0.73;;;;;;;;;;5085089;28;20509;-67
2022/07/14 12:54:02;;;;;;;1.88;0.60;;;;;;;;;;5082748;28;20072;-67
2022/07/14 12:56:39;;;;;;;1.60;0.60;;;;;;;;;;5083050;28;20044;-67
2022/07/14 12:59:08;;;;;;;2.50;0.80;;;;;;;;;;5085838;28;20124;-68
2022/07/14 13:01:52;;;;;;;2.33;0.70;;;;;;;;;;5079155;28;20481;-67
2022/07/14 13:04:48;;;;;;;1.42;0.80;;;;;;;;;;5096086;28;20528;-66
2022/07/14 13:07:18;;;;;;;2.08;0.93;;;;;;;;;;5078074;28;20072;-65
2022/07/14 13:10:03;;;;;;;1.67;0.75;;;;;;;;;;5082757;28;20063;-66
2022/07/14 13:12:29;;;;;;;3.90;0.70;;;;;;;;;;5086697;28;20344;-66
2022/07/14 13:14:56;;;;;;;1.27;0.70;;;;;;;;;;5089206;28;20039;-66
2022/07/14 13:17:42;;;;;;;2.03;0.88;;;;;;;;;;5086813;28;20036;-66
2022/07/14 13:20:27;;;;;;;2.97;1.80;;;;;;;;;;5085520;28;20101;-66
2022/07/14 13:22:57;;;;;;;3.78;1.10;;;;;;;;;;5086644;28;20161;-66
2022/07/14 13:25:23;;;;;;;1.23;0.60;;;;;;;;;;5091507;28;20040;-66
2022/07/14 13:27:49;;;;;;;3.55;1.00;;;;;;;;;;5088159;28;20032;-66
2022/07/14 13:30:15;;;;;;;5.82;1.35;;;;;;;;;;5086622;28;20039;-67
2022/07/14 13:32:41;;;;;;;4.10;0.90;;;;;;;;;;5089419;28;20031;-66
2022/07/14 13:35:07;;;;;;;1.27;0.68;;;;;;;;;;5087262;28;20044;-66
2022/07/14 13:37:34;;;;;;;2.25;1.00;;;;;;;;;;5086674;28;20032;-66
2022/07/14 13:40:00;;;;;;;5.35;1.83;;;;;;;;;;5084780;28;20050;-66
2022/07/14 13:42:26;;;;;;;1.25;0.95;;;;;;;;;;5089957;28;20051;-66
2022/07/14 13:44:52;;;;;;;1.15;0.50;;;;;;;;;;5087959;28;20036;-66
2022/07/14 13:47:18;;;;;;;3.38;0.80;;;14.10;99.90;;;;;;5085860;28;20119;-66
2022/07/14 13:52:28;;;;;;;3.95;0.70;;;21.80;83.70;;;;;;5085952;28;20040;-66
2022/07/14 13:54:54;;;;;;;2.42;0.95;;;21.80;82.60;;;;;;5092712;28;20154;-66
2022/07/14 13:57:20;;;;;;;1.02;0.70;;;21.80;82.60;;;;;;5089782;28;20123;-66
2022/07/14 13:59:46;;;;;;;1.67;0.80;;;21.80;83.40;;;;;;5083178;28;20039;-66
2022/07/14 14:02:12;;;;;;;1.70;0.68;;;21.80;82.00;;;;;;5090924;28;20065;-66
2022/07/14 14:04:38;;;;;;;1.95;0.80;;;21.80;81.60;;;;;;5082060;28;20071;-66
2022/07/14 14:07:04;;;;;;;2.33;0.82;;;21.80;81.20;;;;;;5099058;27;20067;-66
2022/07/14 14:09:30;;;;;;;3.47;0.82;;;21.80;80.40;;;;;;5085464;28;20040;-66
2022/07/14 14:11:57;;;;;;;4.18;0.73;;;21.80;81.40;;;;;;5089184;28;20080;-66
2022/07/14 14:14:24;;;;;;;1.45;0.75;;;21.90;81.40;;;;;;5082697;28;20574;-66
2022/07/14 14:16:49;;;;;;;0.98;0.63;;;21.90;81.30;;;;;;5087845;28;20119;-66
2022/07/14 14:19:18;;;;;;;1.98;0.80;;;21.90;81.20;;;;;;5085444;28;20047;-66
2022/07/14 14:21:45;;;;;;;2.00;0.85;;;21.90;80.20;;;;;;5085751;28;20032;-66
2022/07/14 14:24:11;;;;;;;4.60;1.20;;;21.90;79.90;;;;;;5084209;28;20075;-66
2022/07/14 14:26:37;;;;;;;4.47;1.60;;;21.90;80.50;;;;;;5089273;28;20460;-66
2022/07/14 14:29:02;;;;;;;3.97;1.55;;;21.90;81.90;;;;;;5088174;28;20072;-66
2022/07/14 14:31:28;;;;;;;4.18;1.13;;;21.90;82.50;;;;;;5087705;28;20043;-66
2022/07/14 14:33:54;;;;;;;5.47;1.60;;;21.90;83.60;;;;;;5086747;28;20119;-66
2022/07/14 14:36:20;;;;;;;4.22;1.05;;;21.90;84.10;;;;;;5086540;28;20036;-66
2022/07/14 14:38:46;;;;;;;6.18;1.48;;;21.80;84.90;;;;;;5084975;28;20028;-66
2022/07/14 14:41:12;;;;;;;3.80;1.50;;;;;;;;;;5083494;28;20196;-66
2022/07/14 14:43:38;;;;;;;6.93;1.80;;;;;;;;;;5095918;27;20052;-66
2022/07/14 14:46:05;;;;;;;6.60;1.90;;;;;;;;;;5084903;28;20063;-66
2022/07/14 14:48:30;;;;;;;6.70;1.67;;;21.70;85.50;;;;;;5083732;28;20123;-67
2022/07/14 14:50:56;;;;;;;5.70;1.83;;;21.30;90.30;;;;;;5089301;28;20226;-66
2022/07/14 14:53:22;;;;;;;7.57;1.42;;;21.20;91.10;;;;;;5087151;28;20543;-66
2022/07/14 14:55:48;;;;;;;3.78;1.85;;;21.10;91.30;;;;;;5091215;28;20513;-66